createdAt,value
2023-04-06T00:00:34.960Z,10.60
2023-04-06T00:05:51.387Z,11.60
2023-04-06T00:10:54.562Z,11.80
2023-04-06T00:15:56.524Z,11.80
2023-04-06T00:20:58.553Z,7.40
2023-04-06T00:26:00.890Z,10.50
2023-04-06T00:31:02.832Z,9.50
2023-04-06T00:36:06.591Z,8.90
2023-04-06T00:41:08.590Z,6.90
2023-04-06T00:46:10.769Z,8.80
2023-04-06T00:51:13.257Z,6.70
2023-04-06T00:56:15.365Z,8.20
2023-04-06T01:01:17.375Z,9.70
2023-04-06T01:06:19.306Z,9.40
2023-04-06T01:11:21.348Z,6.90
2023-04-06T01:16:24.903Z,8.10
2023-04-06T01:21:27.399Z,9.20
2023-04-06T01:26:30.082Z,6.80
2023-04-06T01:31:32.044Z,6.90
2023-04-06T01:36:34.057Z,7.40
2023-04-06T01:41:36.210Z,8.70
2023-04-06T01:46:38.165Z,6.40
2023-04-06T01:51:40.700Z,7.70
2023-04-06T01:56:42.650Z,6.60
2023-04-06T02:01:44.958Z,6.60
2023-04-06T02:06:46.960Z,7.30
2023-04-06T02:11:48.938Z,7.70
2023-04-06T02:16:50.960Z,8.30
2023-04-06T02:21:53.033Z,10.20
2023-04-06T02:26:55.281Z,8.10
2023-04-06T02:31:57.257Z,9.70
2023-04-06T02:36:59.398Z,10.30
2023-04-06T02:42:02.161Z,9.00
2023-04-06T02:47:04.099Z,7.00
2023-04-06T02:52:06.361Z,7.60
2023-04-06T02:57:08.628Z,9.80
2023-04-06T03:02:11.393Z,10.30
2023-04-06T03:07:13.362Z,8.30
2023-04-06T03:12:15.496Z,7.80
2023-04-06T03:17:17.404Z,9.80
2023-04-06T03:22:21.367Z,10.40
2023-04-06T03:27:23.306Z,10.50
2023-04-06T03:32:25.293Z,12.30
2023-04-06T03:37:27.257Z,10.70
2023-04-06T03:42:29.920Z,6.90
2023-04-06T03:47:31.884Z,8.70
2023-04-06T03:52:33.822Z,8.60
2023-04-06T03:57:35.781Z,5.50
2023-04-06T04:02:38.176Z,10.10
2023-04-06T04:07:40.524Z,7.60
2023-04-06T04:12:42.547Z,9.00
2023-04-06T04:17:47.694Z,12.10
2023-04-06T04:22:49.849Z,7.90
2023-04-06T04:27:51.771Z,9.30
2023-04-06T04:32:53.900Z,8.30
2023-04-06T04:37:55.901Z,9.60
2023-04-06T04:42:57.885Z,5.40
2023-04-06T04:48:00.338Z,8.00
2023-04-06T04:53:02.607Z,7.30
2023-04-06T04:58:04.664Z,8.30
2023-04-06T05:03:08.255Z,9.30
2023-04-06T05:08:10.411Z,10.30
2023-04-06T05:13:12.474Z,9.30
2023-04-06T05:18:14.416Z,9.10
2023-04-06T05:23:16.340Z,10.00
2023-04-06T05:28:19.283Z,9.10
2023-04-06T05:33:21.482Z,9.30
2023-04-06T05:38:23.492Z,8.00
2023-04-06T05:43:25.458Z,7.50
2023-04-06T05:48:27.394Z,7.70
2023-04-06T05:53:29.805Z,8.10
2023-04-06T05:58:31.769Z,7.40
2023-04-06T06:03:33.821Z,5.80
2023-04-06T06:08:35.766Z,8.40
2023-04-06T06:13:37.743Z,7.60
2023-04-06T06:18:40.543Z,7.60
2023-04-06T06:23:43.651Z,5.80
2023-04-06T06:28:45.948Z,7.50
2023-04-06T06:33:50.905Z,5.30
2023-04-06T06:38:55.046Z,5.90
2023-04-06T06:43:56.974Z,5.70
2023-04-06T06:48:59.812Z,4.70
2023-04-06T06:54:01.915Z,5.70
2023-04-06T06:59:04.082Z,7.20
2023-04-06T07:04:06.268Z,5.80
2023-04-06T07:09:08.428Z,5.60
2023-04-06T07:14:10.594Z,5.60
2023-04-06T07:19:13.303Z,5.10
2023-04-06T07:24:15.509Z,4.00
2023-04-06T07:29:19.442Z,5.40
2023-04-06T07:34:22.365Z,7.10
2023-04-06T07:39:24.328Z,5.80
2023-04-06T07:44:26.404Z,7.30
2023-04-06T07:49:28.392Z,2.90
2023-04-06T07:54:30.396Z,4.90
2023-04-06T07:59:32.498Z,4.60
2023-04-06T08:04:34.724Z,5.10
2023-04-06T08:09:36.928Z,4.10
2023-04-06T08:14:39.018Z,4.60
2023-04-06T08:19:47.165Z,4.20
2023-04-06T08:24:49.199Z,3.40
2023-04-06T08:29:52.082Z,5.50
2023-04-06T08:34:55.742Z,4.80
2023-04-06T08:39:58.357Z,6.30
2023-04-06T08:45:01.352Z,6.70
2023-04-06T08:50:09.082Z,5.80
2023-04-06T08:55:11.123Z,5.80
2023-04-06T09:00:15.281Z,4.90
2023-04-06T09:05:18.101Z,6.00
2023-04-06T09:10:21.341Z,5.60
2023-04-06T09:15:24.969Z,5.80
2023-04-06T09:20:29.013Z,7.00
2023-04-06T09:25:32.439Z,6.80
2023-04-06T09:30:36.570Z,5.60
2023-04-06T09:35:38.713Z,5.30
2023-04-06T09:41:00.923Z,4.90
2023-04-06T09:46:05.250Z,4.40
2023-04-06T09:51:10.913Z,4.60
2023-04-06T09:56:18.577Z,4.60
2023-04-06T10:01:21.641Z,5.40
2023-04-06T10:06:27.817Z,4.90
2023-04-06T10:11:30.248Z,5.50
2023-04-06T10:16:33.241Z,7.80
2023-04-06T10:21:38.488Z,4.20
2023-04-06T10:26:43.635Z,5.00
2023-04-06T10:31:45.963Z,3.30
2023-04-06T10:36:48.052Z,5.40
2023-04-06T10:41:50.068Z,4.30
2023-04-06T10:47:02.488Z,3.90
2023-04-06T10:52:06.841Z,4.00
2023-04-06T10:57:09.083Z,3.90
2023-04-06T11:02:21.587Z,3.60
2023-04-06T11:07:30.992Z,3.40
2023-04-06T11:12:32.962Z,5.20
2023-04-06T11:17:36.972Z,3.30
2023-04-06T11:22:52.348Z,6.70
2023-04-06T11:27:56.110Z,4.00
2023-04-06T11:33:03.068Z,5.60
2023-04-06T11:38:05.217Z,6.30
2023-04-06T11:43:12.562Z,4.20
2023-04-06T11:48:21.392Z,4.50
2023-04-06T11:53:23.958Z,5.70
2023-04-06T11:58:27.318Z,5.40
2023-04-06T12:03:29.350Z,3.60
2023-04-06T12:08:31.452Z,5.90
2023-04-06T12:13:33.582Z,5.60
2023-04-06T12:18:35.676Z,6.00
2023-04-06T12:23:37.669Z,3.40
2023-04-06T12:28:39.902Z,3.90
2023-04-06T12:33:42.271Z,5.00
2023-04-06T12:38:46.399Z,4.70
2023-04-06T12:43:53.158Z,5.10
2023-04-06T12:48:55.780Z,3.10
2023-04-06T12:53:58.066Z,6.00
2023-04-06T12:59:02.423Z,5.10
2023-04-06T13:04:04.578Z,5.70
2023-04-06T13:09:08.515Z,4.60
2023-04-06T13:14:10.599Z,7.00
2023-04-06T13:19:12.797Z,7.10
2023-04-06T13:24:16.593Z,5.40
2023-04-06T13:29:20.274Z,7.10
2023-04-06T13:34:22.424Z,7.50
2023-04-06T13:39:24.557Z,6.80
2023-04-06T13:44:26.896Z,8.80
2023-04-06T13:49:28.989Z,7.80
2023-04-06T13:54:30.926Z,8.10
2023-04-06T13:59:35.368Z,8.50
2023-04-06T14:04:37.564Z,6.60
2023-04-06T14:09:39.514Z,8.80
2023-04-06T14:14:41.530Z,8.10
2023-04-06T14:19:44.155Z,8.70
2023-04-06T14:24:47.488Z,5.30
2023-04-06T14:29:49.438Z,4.80
2023-04-06T14:34:51.391Z,7.40
2023-04-06T14:39:53.706Z,6.50
2023-04-06T14:44:55.771Z,6.20
2023-04-06T14:49:58.239Z,7.20
2023-04-06T14:55:00.475Z,7.00
2023-04-06T15:00:03.851Z,9.10
2023-04-06T15:05:06.557Z,9.60
2023-04-06T15:10:12.010Z,8.20
2023-04-06T15:15:15.000Z,5.90
2023-04-06T15:20:17.043Z,8.20
2023-04-06T15:25:19.076Z,7.60
2023-04-06T15:30:22.167Z,7.40
2023-04-06T15:35:26.159Z,6.50
2023-04-06T15:40:28.236Z,7.20
2023-04-06T15:45:30.302Z,6.10
2023-04-06T15:50:33.970Z,6.20
2023-04-06T15:55:35.981Z,3.90
2023-04-06T16:00:40.841Z,5.00
2023-04-06T16:05:48.949Z,8.30
2023-04-06T16:11:01.968Z,7.50
2023-04-06T16:16:05.863Z,7.90
2023-04-06T16:21:08.308Z,6.10
2023-04-06T16:26:21.255Z,5.20
2023-04-06T16:31:25.429Z,6.80
2023-04-06T16:36:31.238Z,6.00
2023-04-06T16:41:33.262Z,4.90
2023-04-06T16:46:37.956Z,6.20
2023-04-06T16:51:41.653Z,5.10
2023-04-06T16:56:43.778Z,6.20
2023-04-06T17:01:46.553Z,6.20
2023-04-06T17:06:49.891Z,6.30
2023-04-06T17:11:56.113Z,8.50
2023-04-06T17:16:58.407Z,5.10
2023-04-06T17:22:01.274Z,6.00
2023-04-06T17:27:03.495Z,9.60
2023-04-06T17:32:05.632Z,6.30
2023-04-06T17:37:08.180Z,7.10
2023-04-06T17:42:10.095Z,5.70
2023-04-06T17:47:12.132Z,6.50
2023-04-06T17:52:14.177Z,5.60
2023-04-06T17:57:16.200Z,6.10
2023-04-06T18:02:20.265Z,7.10
2023-04-06T18:07:22.600Z,7.50
2023-04-06T18:12:24.620Z,7.90
2023-04-06T18:17:26.845Z,5.90
2023-04-06T18:22:31.809Z,7.00
2023-04-06T18:27:34.952Z,7.70
2023-04-06T18:32:36.927Z,9.30
2023-04-06T18:37:38.851Z,8.40
2023-04-06T18:42:40.713Z,7.90
2023-04-06T18:47:42.704Z,8.50
2023-04-06T18:52:44.796Z,8.00
2023-04-06T18:57:47.160Z,9.70
2023-04-06T19:02:49.370Z,7.30
2023-04-06T19:07:51.931Z,11.60
2023-04-06T19:12:54.274Z,9.30
2023-04-06T19:17:56.812Z,10.80
2023-04-06T19:23:00.363Z,11.10
2023-04-06T19:28:02.732Z,8.60
2023-04-06T19:33:05.690Z,17.50
2023-04-06T19:38:08.014Z,17.00
2023-04-06T19:43:10.084Z,13.60
2023-04-06T19:48:13.055Z,10.70
2023-04-06T19:53:15.106Z,15.20
2023-04-06T19:58:18.321Z,14.70
2023-04-06T20:03:20.625Z,15.40
2023-04-06T20:08:22.759Z,17.20
2023-04-06T20:13:24.916Z,19.20
2023-04-06T20:18:27.110Z,19.00
2023-04-06T20:23:29.333Z,26.70
2023-04-06T20:28:32.320Z,20.10
2023-04-06T20:33:35.001Z,16.40
2023-04-06T20:38:37.129Z,11.80
2023-04-06T20:43:39.195Z,10.70
2023-04-06T20:48:41.563Z,15.60
2023-04-06T20:53:43.888Z,10.00
2023-04-06T20:58:45.897Z,15.30
2023-04-06T21:03:48.443Z,17.10
2023-04-06T21:08:50.650Z,16.30
2023-04-06T21:13:53.002Z,13.80
2023-04-06T21:18:54.978Z,18.20
2023-04-06T21:23:58.019Z,17.10
2023-04-06T21:29:00.755Z,23.70
2023-04-06T21:34:02.731Z,20.20
2023-04-06T21:39:05.072Z,19.70
2023-04-06T21:44:07.324Z,18.00
2023-04-06T21:49:09.997Z,18.10
2023-04-06T21:54:13.919Z,26.30
2023-04-06T21:59:16.122Z,15.40
2023-04-06T22:04:18.543Z,18.80
2023-04-06T22:09:21.542Z,16.40
2023-04-06T22:14:23.521Z,17.50
2023-04-06T22:19:25.404Z,22.20
2023-04-06T22:24:27.490Z,22.40
2023-04-06T22:29:29.402Z,12.30
2023-04-06T22:34:31.285Z,19.00
2023-04-06T22:39:33.232Z,20.80
2023-04-06T22:44:35.789Z,20.60
2023-04-06T22:49:37.719Z,20.20
2023-04-06T22:54:39.944Z,12.60
2023-04-06T22:59:42.163Z,21.20
2023-04-06T23:04:45.813Z,20.50
2023-04-06T23:09:48.489Z,21.50
2023-04-06T23:14:50.470Z,18.30
2023-04-06T23:19:52.477Z,24.20
2023-04-06T23:24:54.464Z,16.70
2023-04-06T23:29:56.391Z,19.50
2023-04-06T23:34:58.327Z,17.80
2023-04-06T23:40:01.620Z,26.00
2023-04-06T23:45:07.247Z,23.60
2023-04-06T23:50:09.355Z,19.80
2023-04-06T23:55:11.314Z,23.90
